Time;durP1;ratioP1;P1;durP2;ratioP2;P2;SDS_P1;SDS_P2;PMS_P1;PMS_P2;Temp;Humidity;BMP_temperature;BMP_pressure;BME280_temperature;BME280_humidity;BME280_pressure;Samples;Min_cycle;Max_cycle;Signal;HPM_P1;HPM_P2
2022/03/10 00:01:08;;;;;;;0.60;0.60;;;4.20;99.90;;;;;;5236649;28;20036;-80
2022/03/10 00:03:46;;;;;;;1.27;1.23;;;4.20;99.90;;;;;;5240451;28;20075;-79
2022/03/10 00:06:21;;;;;;;1.90;1.80;;;4.20;99.90;;;;;;5228470;28;20059;-76
2022/03/10 00:08:54;;;;;;;1.20;1.17;;;4.10;99.90;;;;;;5264367;28;20342;-78
2022/03/10 00:11:31;;;;;;;0.68;0.68;;;4.10;99.90;;;;;;5252050;28;20277;-77
2022/03/10 00:14:03;;;;;;;1.38;1.38;;;4.10;99.90;;;;;;5258612;28;20426;-78
2022/03/10 00:16:37;;;;;;;7.60;1.23;;;4.20;99.90;;;;;;5248912;28;20339;-77
2022/03/10 00:19:12;;;;;;;0.70;0.70;;;4.10;99.90;;;;;;5203379;28;20037;-78
2022/03/10 00:21:47;;;;;;;2.05;1.95;;;4.10;99.90;;;;;;5272593;28;20038;-79
2022/03/10 00:24:19;;;;;;;1.80;1.70;;;4.20;99.90;;;;;;5208661;28;20046;-79
2022/03/10 00:26:53;;;;;;;0.80;0.80;;;4.20;99.90;;;;;;5254544;28;20040;-80
2022/03/10 00:29:28;;;;;;;0.88;0.88;;;4.20;99.90;;;;;;5245370;28;20512;-78
2022/03/10 00:32:00;;;;;;;;;;;4.10;99.90;;;;;;5250078;28;20036;-79
2022/03/10 00:34:34;;;;;;;0.93;0.93;;;4.00;99.90;;;;;;5226113;28;19971;-80
2022/03/10 00:37:10;;;;;;;1.13;1.13;;;3.80;99.90;;;;;;5236371;28;20056;-79
2022/03/10 00:39:42;;;;;;;1.15;1.15;;;3.80;99.90;;;;;;5247611;28;20044;-79
2022/03/10 00:42:16;;;;;;;0.60;0.60;;;3.70;99.90;;;;;;5244894;28;20055;-79
2022/03/10 00:44:48;;;;;;;0.68;0.68;;;3.70;99.90;;;;;;5245102;28;20043;-77
2022/03/10 00:47:23;;;;;;;1.00;1.00;;;3.60;99.90;;;;;;5248928;28;20032;-78
2022/03/10 00:49:54;;;;;;;0.70;0.70;;;3.50;99.90;;;;;;5217993;28;20062;-77
2022/03/10 00:52:30;;;;;;;0.70;0.70;;;3.60;99.90;;;;;;5261479;28;20058;-78
2022/03/10 00:55:04;;;;;;;1.20;1.20;;;3.50;99.90;;;;;;5254176;28;20039;-79
2022/03/10 00:57:39;;;;;;;0.90;0.90;;;3.50;99.90;;;;;;5254017;28;20035;-78
2022/03/10 01:00:14;;;;;;;0.60;0.60;;;3.50;99.90;;;;;;5228140;28;20065;-76
2022/03/10 01:02:46;;;;;;;1.05;1.05;;;3.50;99.90;;;;;;5245950;28;20058;-78
2022/03/10 01:05:21;;;;;;;3.20;1.27;;;3.40;99.90;;;;;;5226549;28;20044;-77
2022/03/10 01:07:52;;;;;;;2.25;2.15;;;3.40;99.90;;;;;;5235660;28;20040;-77
2022/03/10 01:10:27;;;;;;;0.65;0.65;;;3.50;99.90;;;;;;5235148;28;20044;-78
2022/03/10 01:13:01;;;;;;;0.77;0.77;;;3.50;99.90;;;;;;5269151;28;20056;-79
2022/03/10 01:15:32;;;;;;;0.90;0.90;;;3.50;99.90;;;;;;5268110;28;20042;-76
2022/03/10 01:18:06;;;;;;;1.40;1.35;;;3.40;99.90;;;;;;5259891;28;20051;-78
2022/03/10 01:20:38;;;;;;;1.23;1.23;;;3.40;99.90;;;;;;5231526;28;20043;-77
2022/03/10 01:23:13;;;;;;;0.93;0.93;;;3.40;99.90;;;;;;5242872;28;20241;-77
2022/03/10 01:25:47;;;;;;;2.00;1.35;;;3.50;99.90;;;;;;5265456;28;20419;-77
2022/03/10 01:28:18;;;;;;;0.80;0.80;;;3.50;99.90;;;;;;5261943;28;20035;-78
2022/03/10 01:30:52;;;;;;;1.17;1.17;;;3.50;99.90;;;;;;5254051;28;20542;-75
2022/03/10 01:33:34;;;;;;;0.95;0.95;;;3.50;99.90;;;;;;5265091;28;20352;-78
2022/03/10 01:36:05;;;;;;;1.10;1.10;;;3.50;99.90;;;;;;5258505;28;20033;-78
2022/03/10 01:38:39;;;;;;;0.50;0.50;;;3.50;99.90;;;;;;5261103;28;20038;-77
2022/03/10 01:41:16;;;;;;;0.63;0.63;;;3.50;99.90;;;;;;5215537;28;20324;-77
2022/03/10 01:43:58;;;;;;;0.50;0.50;;;3.60;99.90;;;;;;5223100;28;20041;-76
2022/03/10 01:46:33;;;;;;;0.70;0.70;;;3.60;99.90;;;;;;5240983;28;20360;-77
2022/03/10 01:49:06;;;;;;;0.47;0.47;;;3.50;99.90;;;;;;5247738;28;20384;-77
2022/03/10 01:51:40;;;;;;;0.55;0.55;;;3.30;99.90;;;;;;5226255;28;20043;-75
2022/03/10 01:54:16;;;;;;;0.80;0.80;;;3.10;99.90;;;;;;5225105;28;20348;-76
2022/03/10 01:56:48;;;;;;;1.00;1.00;;;3.10;99.90;;;;;;5229297;28;20041;-77
2022/03/10 01:59:23;;;;;;;1.60;1.58;;;3.10;99.90;;;;;;5209621;28;20043;-77
2022/03/10 02:01:57;;;;;;;0.68;0.68;;;3.10;99.90;;;;;;5241236;28;20040;-77
2022/03/10 02:04:29;;;;;;;0.90;0.90;;;3.10;99.90;;;;;;5225116;28;20092;-77
2022/03/10 02:10:16;;;;;;;0.90;0.90;;;3.30;99.90;;;;;;5211008;28;20048;-78
2022/03/10 02:10:19;;;;;;;1.48;1.48;;;3.20;99.90;;;;;;5248224;28;20024;-77
2022/03/10 02:12:54;;;;;;;0.50;0.50;;;3.20;99.90;;;;;;5233003;28;20062;-78
2022/03/10 02:18:27;;;;;;;0.93;0.93;;;3.20;99.90;;;;;;5217856;28;20044;-77
2022/03/10 02:21:02;;;;;;;0.70;0.70;;;3.20;99.90;;;;;;5207915;28;20311;-77
2022/03/10 02:23:36;;;;;;;0.57;0.57;;;3.20;99.90;;;;;;5238039;28;20040;-78
2022/03/10 02:26:13;;;;;;;1.85;1.75;;;3.40;99.90;;;;;;5201763;28;20056;-78
2022/03/10 02:28:49;;;;;;;1.17;1.17;;;3.40;99.90;;;;;;5215263;28;20044;-77
2022/03/10 02:31:24;;;;;;;0.88;0.88;;;3.30;99.90;;;;;;5214290;28;20314;-77
2022/03/10 02:34:02;;;;;;;;;;;3.30;99.90;;;;;;5209472;28;20036;-77
2022/03/10 02:36:36;;;;;;;1.50;1.48;;;3.40;99.90;;;;;;5228652;28;20209;-79
2022/03/10 02:39:08;;;;;;;;;;;3.30;99.90;;;;;;5238624;28;20072;-77
2022/03/10 02:41:43;;;;;;;0.40;0.40;;;3.30;99.90;;;;;;5236630;28;19920;-77
2022/03/10 02:44:17;;;;;;;0.40;0.40;;;3.40;99.90;;;;;;5245782;28;20229;-78
2022/03/10 02:46:48;;;;;;;0.80;0.80;;;3.30;99.90;;;;;;5235735;28;20028;-78
2022/03/10 02:49:20;;;;;;;0.40;0.40;;;3.30;99.90;;;;;;5224587;28;20035;-76
2022/03/10 02:51:51;;;;;;;1.55;1.45;;;3.40;99.90;;;;;;5229148;28;20044;-79
2022/03/10 02:54:28;;;;;;;0.40;0.40;;;3.30;99.90;;;;;;5227029;28;20028;-78
2022/03/10 02:57:05;;;;;;;1.13;1.13;;;3.30;99.90;;;;;;5209440;28;20049;-76
2022/03/10 02:59:39;;;;;;;1.23;1.23;;;3.30;99.90;;;;;;5224796;28;20043;-78
2022/03/10 03:02:12;;;;;;;0.60;0.60;;;3.20;99.90;;;;;;5241665;28;20047;-77
2022/03/10 03:04:47;;;;;;;0.70;0.70;;;3.40;99.90;;;;;;5208345;28;20061;-75
2022/03/10 03:07:18;;;;;;;2.00;1.90;;;3.30;99.90;;;;;;5229819;28;20038;-77
2022/03/10 03:09:53;;;;;;;0.47;0.47;;;3.30;99.90;;;;;;5221851;28;20032;-77
2022/03/10 03:12:24;;;;;;;1.92;1.83;;;3.20;99.90;;;;;;5191139;28;20062;-76
2022/03/10 03:14:59;;;;;;;0.63;0.63;;;3.20;99.90;;;;;;5224839;28;20337;-76
2022/03/10 03:17:32;;;;;;;1.08;1.08;;;3.10;99.90;;;;;;5244813;28;20033;-79
2022/03/10 03:20:05;;;;;;;1.42;1.25;;;3.10;99.90;;;;;;5224427;28;20046;-76
2022/03/10 03:22:37;;;;;;;0.80;0.80;;;3.10;99.90;;;;;;5244482;28;20062;-79
2022/03/10 03:25:17;;;;;;;0.43;0.43;;;3.10;99.90;;;;;;5243619;28;20064;-76
2022/03/10 03:27:55;;;;;;;0.60;0.60;;;3.10;99.90;;;;;;5218487;28;20534;-76
2022/03/10 03:30:27;;;;;;;0.55;0.55;;;3.20;99.90;;;;;;5205180;28;20055;-77
2022/03/10 03:33:03;;;;;;;0.77;0.77;;;3.10;99.90;;;;;;5212659;28;20139;-78
2022/03/10 03:35:35;;;;;;;0.70;0.70;;;3.20;99.90;;;;;;5236968;28;20048;-76
2022/03/10 03:38:11;;;;;;;0.52;0.52;;;3.10;99.90;;;;;;5224193;28;20032;-77
2022/03/10 03:40:43;;;;;;;0.60;0.60;;;3.20;99.90;;;;;;5244341;28;20255;-76
2022/03/10 03:43:18;;;;;;;0.50;0.50;;;3.10;99.90;;;;;;5225881;28;20353;-77
2022/03/10 03:45:50;;;;;;;0.60;0.60;;;3.10;99.90;;;;;;5267663;28;20044;-77
2022/03/10 03:48:27;;;;;;;1.05;1.05;;;3.00;99.90;;;;;;5254303;28;20238;-76
2022/03/10 03:50:58;;;;;;;0.88;0.88;;;3.10;99.90;;;;;;5220807;28;20046;-76
2022/03/10 03:53:31;;;;;;;0.50;0.50;;;3.00;99.90;;;;;;5229789;28;20384;-77
2022/03/10 03:56:05;;;;;;;0.50;0.50;;;3.00;99.90;;;;;;5244693;28;20028;-78
2022/03/10 03:58:39;;;;;;;0.60;0.60;;;3.00;99.90;;;;;;5250287;28;20038;-77
2022/03/10 04:01:11;;;;;;;0.70;0.70;;;2.90;99.90;;;;;;5258563;28;20055;-77
2022/03/10 04:03:45;;;;;;;0.73;0.73;;;2.80;99.90;;;;;;5265649;28;20031;-78
2022/03/10 04:06:17;;;;;;;0.65;0.65;;;2.80;99.90;;;;;;5218942;28;20058;-75
2022/03/10 04:08:51;;;;;;;0.85;0.85;;;2.70;99.90;;;;;;5214415;28;20028;-77
2022/03/10 04:11:27;;;;;;;1.13;1.13;;;2.70;99.90;;;;;;5254609;28;20042;-77
2022/03/10 04:14:05;;;;;;;1.42;1.10;;;2.60;99.90;;;;;;5232674;28;20036;-77
2022/03/10 04:16:40;;;;;;;0.70;0.70;;;2.50;99.90;;;;;;5257578;28;20024;-78
2022/03/10 04:19:11;;;;;;;0.70;0.70;;;2.40;99.90;;;;;;5258555;28;20055;-77
2022/03/10 04:21:45;;;;;;;0.75;0.75;;;2.50;99.90;;;;;;5251253;28;20044;-76
2022/03/10 04:24:17;;;;;;;;;;;2.40;99.90;;;;;;5241057;28;20054;-75
2022/03/10 04:26:51;;;;;;;0.50;0.50;;;2.50;99.90;;;;;;5261088;28;19920;-76
2022/03/10 04:29:29;;;;;;;0.60;0.60;;;2.50;99.90;;;;;;5231150;28;20045;-76
2022/03/10 04:32:06;;;;;;;0.60;0.60;;;2.60;99.90;;;;;;5234462;28;20322;-77
2022/03/10 04:34:43;;;;;;;1.13;1.13;;;2.70;99.90;;;;;;5253066;28;20198;-77
2022/03/10 04:37:15;;;;;;;0.40;0.40;;;2.60;99.90;;;;;;5219835;28;20051;-76
2022/03/10 04:39:51;;;;;;;0.85;0.85;;;2.60;99.90;;;;;;5249151;28;20038;-78
2022/03/10 04:42:23;;;;;;;0.50;0.50;;;2.60;99.90;;;;;;5245051;28;20039;-78
2022/03/10 04:44:54;;;;;;;1.58;1.45;;;2.70;99.90;;;;;;5250915;28;20024;-75
2022/03/10 04:47:26;;;;;;;0.50;0.50;;;2.70;99.90;;;;;;5256461;28;20370;-76
2022/03/10 04:50:02;;;;;;;0.80;0.80;;;2.70;99.90;;;;;;5258752;28;20052;-76
2022/03/10 04:52:36;;;;;;;1.25;1.25;;;2.70;99.90;;;;;;5231287;28;20060;-77
2022/03/10 04:55:13;;;;;;;0.63;0.63;;;2.60;99.90;;;;;;5240905;28;20075;-77
2022/03/10 04:57:47;;;;;;;0.50;0.50;;;2.70;99.90;;;;;;5235721;28;20382;-76
2022/03/10 05:00:19;;;;;;;;;;;2.60;99.90;;;;;;5258686;28;20040;-78
2022/03/10 05:02:50;;;;;;;0.55;0.55;;;2.60;99.90;;;;;;5257115;28;19918;-76
2022/03/10 05:05:28;;;;;;;3.25;3.05;;;2.60;99.90;;;;;;5248866;28;20060;-77
2022/03/10 05:07:59;;;;;;;1.17;1.17;;;2.70;99.90;;;;;;5245885;28;20036;-78
2022/03/10 05:10:39;;;;;;;0.50;0.50;;;2.80;99.90;;;;;;5249190;28;20038;-77
2022/03/10 05:13:13;;;;;;;0.57;0.57;;;2.80;99.90;;;;;;5251399;28;20054;-79
2022/03/10 05:15:45;;;;;;;0.50;0.50;;;2.80;99.90;;;;;;5227765;28;20032;-76
2022/03/10 05:18:17;;;;;;;0.77;0.77;;;2.90;99.90;;;;;;5261897;28;20333;-77
2022/03/10 05:20:51;;;;;;;1.00;1.00;;;2.80;99.90;;;;;;5250320;28;20050;-77
2022/03/10 05:23:27;;;;;;;0.80;0.80;;;2.70;99.90;;;;;;5262217;28;20043;-76
2022/03/10 05:26:01;;;;;;;0.75;0.75;;;2.60;99.90;;;;;;5279514;28;20027;-78
2022/03/10 05:28:33;;;;;;;1.13;1.13;;;2.50;99.90;;;;;;5269847;28;20047;-77
2022/03/10 05:31:04;;;;;;;0.43;0.43;;;2.50;99.90;;;;;;5259740;28;20330;-76
2022/03/10 05:33:41;;;;;;;0.45;0.45;;;2.40;99.90;;;;;;5241862;28;20332;-78
2022/03/10 05:36:18;;;;;;;0.88;0.88;;;2.40;99.90;;;;;;5250876;28;20289;-77
2022/03/10 05:38:52;;;;;;;1.27;1.20;;;2.40;99.90;;;;;;5242828;28;20048;-76
2022/03/10 05:41:23;;;;;;;0.57;0.57;;;2.40;99.90;;;;;;5249626;28;20039;-78
2022/03/10 05:43:57;;;;;;;0.50;0.50;;;2.60;99.90;;;;;;5257890;28;20040;-79
2022/03/10 05:46:30;;;;;;;0.77;0.77;;;2.70;99.90;;;;;;5242244;28;20067;-78
2022/03/10 05:49:06;;;;;;;0.57;0.57;;;2.80;99.90;;;;;;5234832;28;20050;-78
2022/03/10 05:51:42;;;;;;;0.55;0.55;;;2.90;99.90;;;;;;5251304;28;20052;-78
2022/03/10 05:54:16;;;;;;;0.85;0.85;;;2.90;99.90;;;;;;5245424;28;20500;-77
2022/03/10 05:56:53;;;;;;;0.60;0.60;;;3.00;99.90;;;;;;5252007;28;20020;-78
2022/03/10 05:59:27;;;;;;;1.75;1.65;;;3.10;99.90;;;;;;5234558;28;20090;-79
2022/03/10 06:02:01;;;;;;;0.73;0.73;;;3.20;99.90;;;;;;5257933;28;20204;-79
2022/03/10 06:04:33;;;;;;;1.77;1.67;;;3.30;99.90;;;;;;5240343;28;20064;-77
2022/03/10 06:07:10;;;;;;;0.60;0.60;;;3.30;99.90;;;;;;5257753;28;20034;-79
2022/03/10 06:09:46;;;;;;;0.77;0.77;;;3.40;99.90;;;;;;5212507;28;20041;-77
2022/03/10 06:12:27;;;;;;;1.13;1.13;;;3.40;99.90;;;;;;5245376;28;20030;-76
2022/03/10 06:15:05;;;;;;;0.70;0.70;;;3.50;99.90;;;;;;5237421;28;20375;-78
2022/03/10 06:17:37;;;;;;;0.60;0.60;;;3.60;99.90;;;;;;5247197;28;20874;-77
2022/03/10 06:20:11;;;;;;;1.25;1.25;;;3.60;99.90;;;;;;5263021;28;20046;-79
2022/03/10 06:22:43;;;;;;;1.15;1.15;;;3.70;99.90;;;;;;5249617;28;20052;-79
2022/03/10 06:25:17;;;;;;;1.05;1.05;;;3.70;99.90;;;;;;5233519;28;20233;-75
2022/03/10 06:27:51;;;;;;;1.52;1.50;;;3.70;99.90;;;;;;5266446;28;20038;-78
2022/03/10 06:30:25;;;;;;;1.20;1.00;;;3.80;99.90;;;;;;5246214;28;20047;-78
2022/03/10 06:32:59;;;;;;;0.88;0.88;;;3.80;99.90;;;;;;5249221;28;20024;-77
2022/03/10 06:35:38;;;;;;;1.20;1.20;;;3.80;99.90;;;;;;5218884;28;20032;-77
2022/03/10 06:38:09;;;;;;;0.55;0.55;;;3.70;99.90;;;;;;5238115;28;20053;-78
2022/03/10 06:40:43;;;;;;;0.88;0.88;;;3.80;99.90;;;;;;5249965;28;20217;-79
2022/03/10 06:43:19;;;;;;;1.08;1.08;;;3.80;99.90;;;;;;5255528;28;20054;-77
2022/03/10 06:45:54;;;;;;;0.60;0.60;;;3.80;99.90;;;;;;5255332;28;20042;-77
2022/03/10 06:48:26;;;;;;;0.70;0.70;;;3.70;99.90;;;;;;5227616;28;20028;-77
2022/03/10 06:50:58;;;;;;;0.80;0.80;;;3.80;99.90;;;;;;5228611;28;20330;-77
2022/03/10 06:53:32;;;;;;;0.68;0.68;;;3.80;99.90;;;;;;5197057;28;20055;-79
2022/03/10 06:56:03;;;;;;;0.77;0.77;;;3.80;99.90;;;;;;5231823;28;20032;-77
2022/03/10 06:58:36;;;;;;;0.77;0.77;;;3.80;99.90;;;;;;5268077;28;20462;-78
2022/03/10 07:01:10;;;;;;;1.42;1.35;;;3.80;99.90;;;;;;5251977;28;20094;-76
2022/03/10 07:03:43;;;;;;;1.90;1.80;;;3.90;99.90;;;;;;5261229;28;20035;-78
2022/03/10 07:06:22;;;;;;;1.27;1.27;;;4.00;99.90;;;;;;5238534;28;20099;-77
2022/03/10 07:09:02;;;;;;;1.05;1.05;;;4.00;99.90;;;;;;5265256;28;20319;-77
2022/03/10 07:11:33;;;;;;;1.05;1.05;;;4.00;99.90;;;;;;5265536;28;20047;-76
2022/03/10 07:14:05;;;;;;;0.60;0.60;;;4.00;99.90;;;;;;5259787;28;20047;-79
2022/03/10 07:16:37;;;;;;;1.83;1.73;;;4.00;99.90;;;;;;5265966;28;20032;-76
2022/03/10 07:19:12;;;;;;;0.93;0.93;;;4.00;99.90;;;;;;5247199;28;20044;-76
2022/03/10 07:21:46;;;;;;;0.50;0.50;;;4.00;99.90;;;;;;5231682;28;20024;-77
2022/03/10 07:24:17;;;;;;;0.88;0.88;;;4.10;99.90;;;;;;5238617;28;20050;-75
2022/03/10 07:26:55;;;;;;;0.63;0.63;;;4.10;99.90;;;;;;5247245;28;20405;-76
2022/03/10 07:29:26;;;;;;;0.77;0.77;;;4.10;99.90;;;;;;5262439;28;20029;-76
2022/03/10 07:32:00;;;;;;;0.95;0.95;;;4.20;99.90;;;;;;5269174;28;20028;-77
2022/03/10 07:34:34;;;;;;;0.93;0.93;;;4.20;99.90;;;;;;5268875;28;20023;-76
2022/03/10 07:37:06;;;;;;;0.85;0.85;;;4.30;99.90;;;;;;5233650;28;20046;-78
2022/03/10 07:39:37;;;;;;;0.90;0.85;;;4.40;99.90;;;;;;5210124;28;20067;-76
2022/03/10 07:42:09;;;;;;;1.13;1.13;;;4.50;99.90;;;;;;5244187;28;20036;-80
2022/03/10 07:44:42;;;;;;;1.20;1.20;;;4.50;99.90;;;;;;5248174;28;20221;-78
2022/03/10 07:47:14;;;;;;;0.80;0.80;;;4.50;99.90;;;;;;5248194;28;20038;-78
2022/03/10 07:49:46;;;;;;;0.60;0.60;;;4.60;99.90;;;;;;5249089;28;20378;-78
2022/03/10 07:52:18;;;;;;;0.63;0.63;;;4.80;99.90;;;;;;5251186;28;20042;-79
2022/03/10 07:54:49;;;;;;;0.60;0.60;;;4.80;99.90;;;;;;5265985;28;20035;-80
2022/03/10 07:57:21;;;;;;;1.67;1.63;;;4.70;99.90;;;;;;5269917;28;20024;-78
2022/03/10 07:59:56;;;;;;;0.75;0.75;;;4.90;99.90;;;;;;5267912;28;20028;-78
2022/03/10 08:02:27;;;;;;;0.93;0.93;;;5.00;99.90;;;;;;5252531;28;20046;-78
2022/03/10 08:05:03;;;;;;;0.88;0.88;;;5.10;99.90;;;;;;5240470;28;20100;-79
2022/03/10 08:07:41;;;;;;;0.85;0.85;;;5.10;99.90;;;;;;5247611;28;20044;-76
2022/03/10 08:10:13;;;;;;;1.38;1.38;;;4.90;99.90;;;;;;5245016;28;20043;-80
2022/03/10 08:12:45;;;;;;;0.70;0.70;;;5.00;99.90;;;;;;5262444;28;20046;-78
2022/03/10 08:15:21;;;;;;;1.67;1.67;;;5.00;99.90;;;;;;5264498;28;20051;-77
2022/03/10 08:17:53;;;;;;;1.17;1.17;;;5.00;99.90;;;;;;5240461;28;20052;-78
2022/03/10 08:20:26;;;;;;;1.15;1.10;;;5.20;99.90;;;;;;5243408;28;20047;-79
2022/03/10 08:23:00;;;;;;;2.58;2.40;;;5.30;99.90;;;;;;5257090;28;20032;-80
2022/03/10 08:25:32;;;;;;;0.98;0.98;;;5.50;99.90;;;;;;5243725;28;20334;-78
2022/03/10 08:28:10;;;;;;;1.63;1.63;;;5.60;99.90;;;;;;5261257;28;20044;-76
2022/03/10 08:30:41;;;;;;;1.65;1.55;;;5.60;99.90;;;;;;5263945;28;20044;-77
2022/03/10 08:33:13;;;;;;;0.68;0.68;;;5.80;99.90;;;;;;5261927;28;20040;-77
2022/03/10 08:35:47;;;;;;;1.20;1.20;;;5.70;99.90;;;;;;5267015;28;20034;-79
2022/03/10 08:38:18;;;;;;;1.43;1.43;;;5.90;99.90;;;;;;5261926;28;20054;-77
2022/03/10 08:40:51;;;;;;;0.90;0.90;;;6.30;99.90;;;;;;5247659;28;20637;-78
2022/03/10 08:43:28;;;;;;;1.98;1.88;;;6.20;99.90;;;;;;5231237;28;20034;-77
2022/03/10 08:46:03;;;;;;;0.52;0.52;;;6.20;99.90;;;;;;5224784;28;20048;-78
2022/03/10 08:48:35;;;;;;;2.00;1.90;;;6.30;99.90;;;;;;5210324;28;20437;-78
2022/03/10 08:51:08;;;;;;;1.38;1.33;;;6.20;99.90;;;;;;5197160;28;20044;-77
2022/03/10 08:53:44;;;;;;;2.47;1.63;;;6.60;99.90;;;;;;5227202;28;20035;-77
2022/03/10 08:56:20;;;;;;;0.77;0.77;;;6.90;99.90;;;;;;5251773;28;20033;-76
2022/03/10 08:58:56;;;;;;;1.25;1.25;;;7.00;99.90;;;;;;5240489;28;20037;-77
2022/03/10 09:01:30;;;;;;;2.35;2.25;;;7.00;99.90;;;;;;5233412;28;20043;-78
2022/03/10 09:04:06;;;;;;;3.10;2.75;;;7.30;99.90;;;;;;5213220;28;20045;-78
2022/03/10 09:06:40;;;;;;;0.88;0.88;;;7.20;99.90;;;;;;5211936;28;20061;-77
2022/03/10 09:09:14;;;;;;;2.45;2.35;;;7.30;99.90;;;;;;5223334;28;20044;-78
2022/03/10 09:11:48;;;;;;;1.07;1.07;;;7.20;99.90;;;;;;5228091;28;20041;-78
2022/03/10 09:14:25;;;;;;;1.15;1.15;;;6.80;99.90;;;;;;5240962;28;20890;-78
2022/03/10 09:16:59;;;;;;;1.45;1.40;;;7.00;99.90;;;;;;5242639;28;20025;-77
2022/03/10 09:19:34;;;;;;;1.08;1.08;;;7.30;99.90;;;;;;5240739;28;20052;-78
2022/03/10 09:22:05;;;;;;;1.55;1.55;;;7.20;99.90;;;;;;5251943;28;20044;-78
2022/03/10 09:24:37;;;;;;;1.95;1.85;;;7.20;99.90;;;;;;5225262;28;20036;-79
2022/03/10 09:27:10;;;;;;;1.55;1.55;;;7.20;99.90;;;;;;5229507;28;20116;-76
2022/03/10 09:29:46;;;;;;;1.83;1.73;;;7.10;99.90;;;;;;5244610;28;20028;-79
2022/03/10 09:32:20;;;;;;;0.60;0.60;;;6.90;99.90;;;;;;5211120;28;20056;-78
2022/03/10 09:34:52;;;;;;;;;;;7.30;99.90;;;;;;5242518;28;20269;-80
2022/03/10 09:37:23;;;;;;;1.58;1.00;;;7.40;99.90;;;;;;5244625;28;20450;-78
2022/03/10 09:39:54;;;;;;;1.55;1.55;;;7.10;99.90;;;;;;5239579;28;20039;-80
2022/03/10 09:42:29;;;;;;;1.15;1.15;;;7.10;99.90;;;;;;5233258;28;20044;-77
2022/03/10 09:45:12;;;;;;;1.85;1.75;;;7.10;99.90;;;;;;5225567;28;20029;-79
2022/03/10 09:47:51;;;;;;;2.17;1.83;;;7.30;99.90;;;;;;5214168;28;20042;-77
2022/03/10 09:50:25;;;;;;;1.60;1.50;;;7.30;99.90;;;;;;5226110;28;20028;-77
2022/03/10 09:53:00;;;;;;;1.05;1.05;;;7.10;99.90;;;;;;5224442;28;20025;-78
2022/03/10 09:55:31;;;;;;;1.45;1.45;;;7.10;99.90;;;;;;5228503;28;20349;-78
2022/03/10 09:58:15;;;;;;;1.20;1.20;;;7.20;99.90;;;;;;5239802;28;20041;-79
2022/03/10 10:00:46;;;;;;;1.40;1.40;;;7.40;99.90;;;;;;5245026;28;20372;-79
2022/03/10 10:03:18;;;;;;;1.00;1.00;;;7.70;99.90;;;;;;5243483;28;20028;-78
2022/03/10 10:05:50;;;;;;;1.00;0.90;;;7.80;99.90;;;;;;5215371;28;20052;-79
2022/03/10 10:08:21;;;;;;;1.85;1.77;;;7.60;99.90;;;;;;5205419;28;20045;-76
2022/03/10 10:11:00;;;;;;;0.90;0.90;;;7.40;99.90;;;;;;5212821;28;20035;-76
2022/03/10 10:13:38;;;;;;;1.67;1.63;;;7.00;99.90;;;;;;5231546;28;20321;-79
2022/03/10 10:16:17;;;;;;;1.25;1.25;;;6.90;99.90;;;;;;5236036;28;20028;-77
2022/03/10 10:18:57;;;;;;;1.08;1.08;;;6.90;99.90;;;;;;5230711;28;20350;-79
2022/03/10 10:21:29;;;;;;;1.80;1.70;;;6.90;99.90;;;;;;5214642;28;20025;-78
2022/03/10 10:24:00;;;;;;;0.75;0.75;;;6.70;99.90;;;;;;5196880;28;20075;-78
2022/03/10 10:26:32;;;;;;;2.17;1.13;;;7.10;99.90;;;;;;5227724;28;20056;-76
2022/03/10 10:29:06;;;;;;;1.40;1.13;;;7.40;99.90;;;;;;5196559;28;20260;-76
2022/03/10 10:31:40;;;;;;;1.13;1.13;;;7.60;99.90;;;;;;5232179;28;20027;-78
2022/03/10 10:34:21;;;;;;;2.15;2.05;;;8.60;99.90;;;;;;5227302;28;20040;-78
2022/03/10 10:36:59;;;;;;;1.55;1.55;;;8.80;99.90;;;;;;5191453;28;20044;-79
2022/03/10 10:39:34;;;;;;;0.60;0.60;;;9.00;99.90;;;;;;5234607;28;20039;-79
2022/03/10 10:42:16;;;;;;;1.58;1.50;;;9.90;99.90;;;;;;5250393;28;20054;-77
2022/03/10 10:44:47;;;;;;;0.90;0.90;;;11.10;99.90;;;;;;5245450;28;20044;-79
2022/03/10 10:47:22;;;;;;;2.15;2.05;;;11.90;99.90;;;;;;5246233;28;20285;-78
2022/03/10 10:49:58;;;;;;;1.70;1.60;;;10.90;99.90;;;;;;5230620;28;20047;-82
2022/03/10 10:52:40;;;;;;;1.98;1.38;;;10.30;99.90;;;;;;5238077;28;20059;-81
2022/03/10 10:55:13;;;;;;;1.73;1.67;;;9.90;99.90;;;;;;5265545;28;20352;-79
2022/03/10 10:57:47;;;;;;;0.98;0.98;;;9.10;99.90;;;;;;5233534;28;20044;-79
2022/03/10 11:00:18;;;;;;;1.67;1.58;;;8.70;99.90;;;;;;5235439;28;20358;-78
2022/03/10 11:02:51;;;;;;;0.93;0.93;;;8.50;99.90;;;;;;5240302;28;20050;-79
2022/03/10 11:05:23;;;;;;;0.80;0.80;;;9.60;99.90;;;;;;5246193;28;20064;-81
2022/03/10 11:07:56;;;;;;;0.80;0.80;;;9.20;99.90;;;;;;5229426;28;20048;-80
2022/03/10 11:10:27;;;;;;;0.95;0.95;;;9.40;99.90;;;;;;5224304;28;20045;-79
2022/03/10 11:13:01;;;;;;;1.23;1.23;;;8.70;99.90;;;;;;5227988;28;20032;-79
2022/03/10 11:15:33;;;;;;;1.50;1.45;;;8.80;99.90;;;;;;5250753;28;20287;-79
2022/03/10 11:18:12;;;;;;;1.70;1.60;;;8.60;99.90;;;;;;5229429;28;20038;-77
2022/03/10 11:20:50;;;;;;;1.83;1.73;;;7.80;99.90;;;;;;5219360;28;20036;-78
2022/03/10 11:23:45;;;;;;;0.90;0.90;;;7.60;99.90;;;;;;5226093;28;20477;-79
2022/03/10 11:26:37;;;;;;;1.55;1.45;;;7.40;99.90;;;;;;5240717;28;20283;-78
2022/03/10 11:29:11;;;;;;;0.98;0.98;;;7.20;99.90;;;;;;5227177;28;20040;-79
2022/03/10 11:31:50;;;;;;;0.93;0.93;;;7.80;99.90;;;;;;5234988;28;20050;-81
2022/03/10 11:34:56;;;;;;;0.80;0.80;;;9.80;99.90;;;;;;5255084;28;20035;-77
2022/03/10 11:37:42;;;;;;;2.42;2.33;;;8.60;99.90;;;;;;5224379;28;20387;-78
2022/03/10 11:40:19;;;;;;;0.73;0.73;;;7.80;99.90;;;;;;5241721;28;20054;-79
2022/03/10 11:43:03;;;;;;;1.33;1.33;;;7.40;99.90;;;;;;5233053;28;20459;-78
2022/03/10 11:45:35;;;;;;;1.17;1.17;;;7.60;99.90;;;;;;5238979;28;20054;-77
2022/03/10 11:48:28;;;;;;;1.10;1.10;;;7.80;99.90;;;;;;5240038;28;20035;-81
2022/03/10 11:51:09;;;;;;;0.70;0.70;;;8.20;99.90;;;;;;5231726;28;20056;-78
2022/03/10 11:54:08;;;;;;;0.75;0.75;;;8.60;99.90;;;;;;5241756;28;20038;-79
2022/03/10 11:56:51;;;;;;;1.95;1.85;;;8.80;99.90;;;;;;5235275;28;20058;-80
2022/03/10 11:59:34;;;;;;;1.15;1.15;;;8.70;99.90;;;;;;5268961;28;20069;-78
2022/03/10 12:02:39;;;;;;;1.10;1.10;;;9.30;99.90;;;;;;5235785;28;20052;-77
2022/03/10 12:05:13;;;;;;;0.77;0.77;;;9.50;99.90;;;;;;5222530;28;20054;-77
2022/03/10 12:07:51;;;;;;;1.10;1.10;;;9.00;99.90;;;;;;5236381;28;20040;-77
2022/03/10 12:10:40;;;;;;;2.95;2.03;;;8.70;99.90;;;;;;5241446;28;20032;-78
2022/03/10 12:13:47;;;;;;;1.25;1.25;;;8.10;99.90;;;;;;5234545;28;20038;-79
2022/03/10 12:16:25;;;;;;;1.33;1.33;;;8.60;99.90;;;;;;5239939;28;20037;-79
2022/03/10 12:18:59;;;;;;;1.33;1.33;;;9.20;99.90;;;;;;5267020;28;20050;-79
2022/03/10 12:21:30;;;;;;;1.43;1.43;;;9.70;99.90;;;;;;5246029;28;20165;-79
2022/03/10 12:24:04;;;;;;;1.10;1.10;;;10.10;99.90;;;;;;5264651;28;20044;-79
2022/03/10 12:26:39;;;;;;;1.45;1.33;;;9.40;99.90;;;;;;5227650;28;20079;-79
2022/03/10 12:29:13;;;;;;;1.33;1.33;;;9.20;99.90;;;;;;5235226;28;20234;-78
2022/03/10 12:31:44;;;;;;;1.65;1.60;;;9.10;99.90;;;;;;5234637;28;20024;-79
2022/03/10 12:34:25;;;;;;;0.60;0.60;;;10.50;99.90;;;;;;5214311;28;20040;-80
2022/03/10 12:36:59;;;;;;;1.35;1.35;;;9.80;99.90;;;;;;5248930;28;20055;-80
2022/03/10 12:39:35;;;;;;;1.00;1.00;;;10.90;99.90;;;;;;5252047;28;20083;-79
2022/03/10 12:42:09;;;;;;;0.90;0.90;;;10.70;99.90;;;;;;5234758;28;20044;-78
2022/03/10 12:44:44;;;;;;;;;;;10.50;99.90;;;;;;5233107;28;20043;-79
2022/03/10 12:47:16;;;;;;;0.80;0.80;;;9.70;99.90;;;;;;5246552;28;20229;-78
2022/03/10 12:49:50;;;;;;;1.23;1.23;;;8.80;99.90;;;;;;5240654;28;20032;-79
2022/03/10 12:52:27;;;;;;;1.45;1.45;;;9.20;99.90;;;;;;5270962;28;20364;-82
2022/03/10 12:54:58;;;;;;;2.95;2.55;;;10.70;99.90;;;;;;5249772;28;20028;-79
2022/03/10 12:57:30;;;;;;;1.17;1.17;;;11.90;99.90;;;;;;5252569;28;20044;-78
2022/03/10 13:00:05;;;;;;;1.98;1.90;;;12.60;99.90;;;;;;5241469;28;20035;-81
2022/03/10 13:02:37;;;;;;;1.23;1.23;;;14.00;99.90;;;;;;5232549;28;20074;-80
2022/03/10 13:05:20;;;;;;;0.80;0.80;;;12.50;99.90;;;;;;5240978;28;20107;-79
2022/03/10 13:07:51;;;;;;;1.10;1.10;;;11.60;99.90;;;;;;5234606;28;20048;-77
2022/03/10 13:10:23;;;;;;;1.10;1.10;;;10.30;99.90;;;;;;5256805;28;20024;-78
2022/03/10 13:12:55;;;;;;;1.10;1.10;;;11.20;99.90;;;;;;5233078;28;20027;-78
2022/03/10 13:15:33;;;;;;;1.20;1.20;;;12.40;99.90;;;;;;5265274;28;20056;-79
2022/03/10 13:18:07;;;;;;;0.82;0.82;;;13.10;99.90;;;;;;5244734;28;20044;-80
2022/03/10 13:20:41;;;;;;;;;;;12.20;99.90;;;;;;5240232;28;20043;-79
2022/03/10 13:23:15;;;;;;;0.63;0.63;;;11.50;99.90;;;;;;5240075;28;20091;-79
2022/03/10 13:25:53;;;;;;;1.00;1.00;;;11.40;99.90;;;;;;5235212;28;20352;-79
2022/03/10 13:28:25;;;;;;;0.70;0.70;;;11.50;99.90;;;;;;5242713;28;20032;-81
2022/03/10 13:30:57;;;;;;;0.73;0.73;;;11.50;99.90;;;;;;5235475;28;20322;-80
2022/03/10 13:33:29;;;;;;;0.90;0.90;;;12.00;99.90;;;;;;5253429;28;20063;-80
2022/03/10 13:36:04;;;;;;;0.80;0.80;;;12.20;99.90;;;;;;5246433;28;20049;-81
2022/03/10 13:38:35;;;;;;;1.00;1.00;;;12.40;99.30;;;;;;5221864;28;20044;-80
2022/03/10 13:41:07;;;;;;;2.17;1.70;;;12.00;98.50;;;;;;5254274;28;20123;-80